Hewitt, TX (76643)

6:35 AM CDT on October 25, 2014 (GMT -0500)
Cedar Ridge | Change Station
CLOSE
Current Station
Personal Weather Station
Location: Robinson, TX
Elevation: 502 ft
Nearby Weather Stations

Elev 502 ft 31.46 °N, 97.12 °W | Updated 4 seconds ago

Clear
Clear
60.3 °F
Feels Like 60.3 °F
N
1.6
Wind Variable Wind from SE
Gusts 2.2 mph

Today
High -- | Low -- °F
--% Chance of Precip.
Yesterday
High -- | Low -- °F
Precip. -- in
7:39 AM 6:46 PM
Waxing Crescent, 3% visible
Pressure 30.14 in
Visibility 10.0 miles
Clouds Clear
Dew Point 59 °F
Humidity 95%
Rainfall 0.00 in
Snow Depth Not available.
UV 0 out of 12
Pollen 5.50 out of 12
Ozone Good
PM2.5 Good
Flu Activity Local Activity
METAR KPWG 251115Z AUTO 16003KT 10SM CLR 16/11 A3014 RMK AO1

More Conditions Fewer Conditions

Pressure 30.14 in
Visibility 10.0 miles
Clouds Clear
Dew Point 59 °F
Humidity 95%
Rainfall 0.00 in
Snow Depth Not available.
UV 0 out of 12
Pollen 5.50 out of 12
Ozone Good
PM2.5 Good
Flu Activity Local Activity
METAR KPWG 251115Z AUTO 16003KT 10SM CLR 16/11 A3014 RMK AO1

More Conditions Fewer Conditions

10-Day Weather Forecast

Almanac

Astronomy

Oct. 25, 2014 Rise Set
Actual Time 7:39 AM CDT 6:46 PM CDT
Civil Twilight 7:14 AM CDT 7:10 PM CDT
Nautical Twilight 6:45 AM CDT 7:39 PM CDT
Astronomical Twilight 6:17 AM CDT 8:07 PM CDT
Moon 9:14 AM CDT 8:15 PM CDT
Length of Visible Light 11h 56m
Length of Day
11h 06m
Tomorrow will be 1m 45s shorter.
Waxing Crescent, 3% of the Moon is Illuminated
Today
Waxing Crescent
Oct 30
First Quarter
Nov 6
Full
Nov 14
Last Quarter
Nov 22
New

Today's Extremes

State Highs State Lows

Community

WunderPhotos

Upload Photos

1,764,810 photos uploaded!

Nearby

Air Quality

  Air Quality AQ Index Pollutant
Yesterday Moderate
OZONE
Yesterday Good
PM2.5
Current Good
PM2.5
Current Good
OZONE
Saturday Good
PM10
Saturday Moderate
OZONE
Sunday Good
PM10
Sunday Moderate
OZONE
Monday Good
PM10
Monday Good
OZONE
Tuesday Good
PM10
Tuesday Good
OZONE

Snow Depth

Station Depth Elevation
No new snow has been reported.

Earthquake Activity

City Distance Mag. Time & Date
No recent earthquake activity has been reported nearby.
Minimum magnitude displayed is 2.5.

Coastal Water Temperatures

Place Temperature
No Stations Reporting

Nearby Weather Stations